sensor_id;sensor_type;location;lat;lon;timestamp;P1;durP1;ratioP1;P2;durP2;ratioP2
1759;SDS011;877;46.266;20.062;2023-03-14T00:01:19;13.45;;;6.88;;
1759;SDS011;877;46.266;20.062;2023-03-14T00:06:24;12.32;;;7.40;;
1759;SDS011;877;46.266;20.062;2023-03-14T00:08:52;11.70;;;6.90;;
1759;SDS011;877;46.266;20.062;2023-03-14T00:11:20;13.88;;;7.40;;
1759;SDS011;877;46.266;20.062;2023-03-14T00:13:50;12.95;;;8.48;;
1759;SDS011;877;46.266;20.062;2023-03-14T00:16:20;9.00;;;6.10;;
1759;SDS011;877;46.266;20.062;2023-03-14T00:18:55;13.23;;;5.95;;
1759;SDS011;877;46.266;20.062;2023-03-14T00:24:07;9.48;;;5.40;;
1759;SDS011;877;46.266;20.062;2023-03-14T00:26:42;9.80;;;6.00;;
1759;SDS011;877;46.266;20.062;2023-03-14T00:29:09;9.10;;;6.63;;
1759;SDS011;877;46.266;20.062;2023-03-14T00:31:40;8.15;;;5.20;;
1759;SDS011;877;46.266;20.062;2023-03-14T00:34:06;10.32;;;5.07;;
1759;SDS011;877;46.266;20.062;2023-03-14T00:36:44;9.68;;;6.25;;
1759;SDS011;877;46.266;20.062;2023-03-14T00:39:11;9.32;;;6.20;;
1759;SDS011;877;46.266;20.062;2023-03-14T00:41:43;8.20;;;5.50;;
1759;SDS011;877;46.266;20.062;2023-03-14T00:44:10;9.73;;;6.40;;
1759;SDS011;877;46.266;20.062;2023-03-14T00:46:43;9.03;;;5.53;;
1759;SDS011;877;46.266;20.062;2023-03-14T00:49:10;9.20;;;6.00;;
1759;SDS011;877;46.266;20.062;2023-03-14T00:51:37;8.90;;;5.25;;
1759;SDS011;877;46.266;20.062;2023-03-14T00:56:53;9.85;;;6.28;;
1759;SDS011;877;46.266;20.062;2023-03-14T01:04:43;9.52;;;6.15;;
1759;SDS011;877;46.266;20.062;2023-03-14T01:07:16;9.15;;;5.53;;
1759;SDS011;877;46.266;20.062;2023-03-14T01:09:54;9.20;;;6.10;;
1759;SDS011;877;46.266;20.062;2023-03-14T01:15:14;8.98;;;5.25;;
1759;SDS011;877;46.266;20.062;2023-03-14T01:23:31;12.48;;;5.53;;
1759;SDS011;877;46.266;20.062;2023-03-14T01:25:58;10.52;;;6.70;;
1759;SDS011;877;46.266;20.062;2023-03-14T01:28:24;9.20;;;5.80;;
1759;SDS011;877;46.266;20.062;2023-03-14T01:33:38;9.48;;;5.40;;
1759;SDS011;877;46.266;20.062;2023-03-14T01:38:35;8.15;;;5.13;;
1759;SDS011;877;46.266;20.062;2023-03-14T01:41:01;9.45;;;5.90;;
1759;SDS011;877;46.266;20.062;2023-03-14T01:46:32;9.38;;;5.75;;
1759;SDS011;877;46.266;20.062;2023-03-14T01:51:55;9.73;;;5.60;;
1759;SDS011;877;46.266;20.062;2023-03-14T01:59:22;11.35;;;6.78;;
1759;SDS011;877;46.266;20.062;2023-03-14T02:01:50;8.95;;;5.65;;
1759;SDS011;877;46.266;20.062;2023-03-14T02:04:24;9.77;;;5.80;;
1759;SDS011;877;46.266;20.062;2023-03-14T02:12:31;10.25;;;5.30;;
1759;SDS011;877;46.266;20.062;2023-03-14T02:15:04;9.07;;;5.60;;
1759;SDS011;877;46.266;20.062;2023-03-14T02:17:36;8.88;;;6.45;;
1759;SDS011;877;46.266;20.062;2023-03-14T02:20:07;8.68;;;5.72;;
1759;SDS011;877;46.266;20.062;2023-03-14T02:22:52;10.23;;;6.75;;
1759;SDS011;877;46.266;20.062;2023-03-14T02:36:14;8.65;;;5.30;;
1759;SDS011;877;46.266;20.062;2023-03-14T02:44:24;9.10;;;5.30;;
1759;SDS011;877;46.266;20.062;2023-03-14T02:46:54;11.07;;;5.82;;
1759;SDS011;877;46.266;20.062;2023-03-14T02:49:24;10.85;;;5.50;;
1759;SDS011;877;46.266;20.062;2023-03-14T02:54:54;10.13;;;5.40;;
1759;SDS011;877;46.266;20.062;2023-03-14T03:08:59;9.43;;;5.18;;
1759;SDS011;877;46.266;20.062;2023-03-14T03:11:28;8.63;;;5.05;;
1759;SDS011;877;46.266;20.062;2023-03-14T03:13:59;7.97;;;5.43;;
1759;SDS011;877;46.266;20.062;2023-03-14T03:16:27;8.25;;;5.53;;
1759;SDS011;877;46.266;20.062;2023-03-14T03:18:54;8.23;;;4.82;;
1759;SDS011;877;46.266;20.062;2023-03-14T03:21:28;8.45;;;5.13;;
1759;SDS011;877;46.266;20.062;2023-03-14T03:23:55;9.52;;;5.18;;
1759;SDS011;877;46.266;20.062;2023-03-14T03:26:22;8.00;;;5.30;;
1759;SDS011;877;46.266;20.062;2023-03-14T03:28:50;6.97;;;5.35;;
1759;SDS011;877;46.266;20.062;2023-03-14T03:31:16;7.38;;;4.25;;
1759;SDS011;877;46.266;20.062;2023-03-14T03:33:44;10.18;;;5.50;;
1759;SDS011;877;46.266;20.062;2023-03-14T03:36:22;7.47;;;5.10;;
1759;SDS011;877;46.266;20.062;2023-03-14T03:38:54;7.22;;;4.85;;
1759;SDS011;877;46.266;20.062;2023-03-14T03:41:21;9.55;;;5.05;;
1759;SDS011;877;46.266;20.062;2023-03-14T03:43:50;8.35;;;5.38;;
1759;SDS011;877;46.266;20.062;2023-03-14T03:46:23;9.32;;;5.82;;
1759;SDS011;877;46.266;20.062;2023-03-14T03:48:59;7.43;;;4.97;;
1759;SDS011;877;46.266;20.062;2023-03-14T03:54:31;8.55;;;5.05;;
1759;SDS011;877;46.266;20.062;2023-03-14T03:57:04;9.80;;;5.22;;
1759;SDS011;877;46.266;20.062;2023-03-14T03:59:31;10.43;;;5.07;;
1759;SDS011;877;46.266;20.062;2023-03-14T04:02:02;6.90;;;4.90;;
1759;SDS011;877;46.266;20.062;2023-03-14T04:04:43;9.05;;;4.57;;
1759;SDS011;877;46.266;20.062;2023-03-14T04:07:10;9.18;;;4.80;;
1759;SDS011;877;46.266;20.062;2023-03-14T04:09:40;8.70;;;5.38;;
1759;SDS011;877;46.266;20.062;2023-03-14T04:12:08;9.93;;;5.50;;
1759;SDS011;877;46.266;20.062;2023-03-14T04:14:47;7.65;;;5.30;;
1759;SDS011;877;46.266;20.062;2023-03-14T04:17:14;16.25;;;5.57;;
1759;SDS011;877;46.266;20.062;2023-03-14T04:19:49;7.65;;;5.47;;
1759;SDS011;877;46.266;20.062;2023-03-14T04:24:57;7.68;;;4.75;;
1759;SDS011;877;46.266;20.062;2023-03-14T04:27:25;8.20;;;5.00;;
1759;SDS011;877;46.266;20.062;2023-03-14T04:30:07;7.82;;;5.35;;
1759;SDS011;877;46.266;20.062;2023-03-14T04:32:44;8.23;;;5.28;;
1759;SDS011;877;46.266;20.062;2023-03-14T04:37:59;8.40;;;5.25;;
1759;SDS011;877;46.266;20.062;2023-03-14T04:40:38;6.70;;;4.03;;
1759;SDS011;877;46.266;20.062;2023-03-14T04:43:11;7.40;;;4.47;;
1759;SDS011;877;46.266;20.062;2023-03-14T04:45:42;7.28;;;4.90;;
1759;SDS011;877;46.266;20.062;2023-03-14T04:48:25;8.23;;;5.00;;
1759;SDS011;877;46.266;20.062;2023-03-14T04:53:50;7.03;;;4.93;;
1759;SDS011;877;46.266;20.062;2023-03-14T04:56:23;6.75;;;4.70;;
1759;SDS011;877;46.266;20.062;2023-03-14T05:06:55;9.65;;;5.85;;
1759;SDS011;877;46.266;20.062;2023-03-14T05:09:21;7.75;;;5.18;;
1759;SDS011;877;46.266;20.062;2023-03-14T05:12:02;9.40;;;4.68;;
1759;SDS011;877;46.266;20.062;2023-03-14T05:14:40;10.65;;;5.55;;
1759;SDS011;877;46.266;20.062;2023-03-14T05:17:07;6.78;;;5.00;;
1759;SDS011;877;46.266;20.062;2023-03-14T05:19:44;9.88;;;5.13;;
1759;SDS011;877;46.266;20.062;2023-03-14T05:24:59;8.45;;;5.63;;
1759;SDS011;877;46.266;20.062;2023-03-14T05:27:26;12.52;;;5.68;;
1759;SDS011;877;46.266;20.062;2023-03-14T05:35:35;6.82;;;5.10;;
1759;SDS011;877;46.266;20.062;2023-03-14T05:38:04;9.43;;;5.57;;
1759;SDS011;877;46.266;20.062;2023-03-14T05:43:02;9.10;;;5.82;;
1759;SDS011;877;46.266;20.062;2023-03-14T05:45:29;6.43;;;3.53;;
1759;SDS011;877;46.266;20.062;2023-03-14T05:47:55;10.50;;;4.40;;
1759;SDS011;877;46.266;20.062;2023-03-14T05:50:23;7.75;;;4.93;;
1759;SDS011;877;46.266;20.062;2023-03-14T05:53:00;8.15;;;5.10;;
1759;SDS011;877;46.266;20.062;2023-03-14T05:55:34;7.20;;;5.30;;
1759;SDS011;877;46.266;20.062;2023-03-14T05:58:07;8.63;;;4.72;;
1759;SDS011;877;46.266;20.062;2023-03-14T06:03:11;9.30;;;4.70;;
1759;SDS011;877;46.266;20.062;2023-03-14T06:05:51;6.32;;;4.30;;
1759;SDS011;877;46.266;20.062;2023-03-14T06:08:25;6.97;;;4.85;;
1759;SDS011;877;46.266;20.062;2023-03-14T06:10:52;7.15;;;4.80;;
1759;SDS011;877;46.266;20.062;2023-03-14T06:13:19;9.98;;;5.30;;
1759;SDS011;877;46.266;20.062;2023-03-14T06:15:46;11.07;;;5.78;;
1759;SDS011;877;46.266;20.062;2023-03-14T06:18:13;6.50;;;4.57;;
1759;SDS011;877;46.266;20.062;2023-03-14T06:23:12;9.20;;;5.45;;
1759;SDS011;877;46.266;20.062;2023-03-14T06:25:44;10.35;;;4.95;;
1759;SDS011;877;46.266;20.062;2023-03-14T06:28:10;9.88;;;4.65;;
1759;SDS011;877;46.266;20.062;2023-03-14T06:30:47;15.23;;;4.85;;
1759;SDS011;877;46.266;20.062;2023-03-14T06:33:20;6.22;;;3.83;;
1759;SDS011;877;46.266;20.062;2023-03-14T06:35:54;8.05;;;4.32;;
1759;SDS011;877;46.266;20.062;2023-03-14T06:38:21;6.15;;;3.42;;
1759;SDS011;877;46.266;20.062;2023-03-14T06:41:02;7.47;;;5.15;;
1759;SDS011;877;46.266;20.062;2023-03-14T06:43:29;9.60;;;4.70;;
1759;SDS011;877;46.266;20.062;2023-03-14T06:45:56;6.55;;;4.20;;
1759;SDS011;877;46.266;20.062;2023-03-14T06:48:24;7.20;;;4.30;;
1759;SDS011;877;46.266;20.062;2023-03-14T06:50:52;9.32;;;5.25;;
1759;SDS011;877;46.266;20.062;2023-03-14T06:53:27;8.00;;;4.45;;
1759;SDS011;877;46.266;20.062;2023-03-14T06:55:55;8.02;;;4.05;;
1759;SDS011;877;46.266;20.062;2023-03-14T06:58:29;7.30;;;4.38;;
1759;SDS011;877;46.266;20.062;2023-03-14T07:00:55;7.25;;;4.70;;
1759;SDS011;877;46.266;20.062;2023-03-14T07:03:22;8.30;;;4.82;;
1759;SDS011;877;46.266;20.062;2023-03-14T07:05:59;6.03;;;4.20;;
1759;SDS011;877;46.266;20.062;2023-03-14T07:08:26;7.45;;;4.00;;
1759;SDS011;877;46.266;20.062;2023-03-14T07:10:52;6.53;;;4.20;;
1759;SDS011;877;46.266;20.062;2023-03-14T07:13:18;7.40;;;4.70;;
1759;SDS011;877;46.266;20.062;2023-03-14T07:15:45;7.15;;;4.70;;
1759;SDS011;877;46.266;20.062;2023-03-14T07:18:13;8.27;;;4.50;;
1759;SDS011;877;46.266;20.062;2023-03-14T07:20:41;8.05;;;4.40;;
1759;SDS011;877;46.266;20.062;2023-03-14T07:25:56;7.88;;;4.50;;
1759;SDS011;877;46.266;20.062;2023-03-14T07:28:22;10.23;;;4.17;;
1759;SDS011;877;46.266;20.062;2023-03-14T07:30:49;5.60;;;4.15;;
1759;SDS011;877;46.266;20.062;2023-03-14T07:33:17;6.83;;;4.03;;
1759;SDS011;877;46.266;20.062;2023-03-14T07:35:45;6.37;;;3.93;;
1759;SDS011;877;46.266;20.062;2023-03-14T07:38:14;7.68;;;4.55;;
1759;SDS011;877;46.266;20.062;2023-03-14T07:40:41;6.47;;;4.15;;
1759;SDS011;877;46.266;20.062;2023-03-14T07:43:15;10.98;;;5.40;;
1759;SDS011;877;46.266;20.062;2023-03-14T07:45:48;8.23;;;5.03;;
1759;SDS011;877;46.266;20.062;2023-03-14T07:48:25;8.53;;;5.07;;
1759;SDS011;877;46.266;20.062;2023-03-14T07:51:02;6.38;;;4.13;;
1759;SDS011;877;46.266;20.062;2023-03-14T07:53:45;8.35;;;4.50;;
1759;SDS011;877;46.266;20.062;2023-03-14T07:56:14;7.38;;;4.20;;
1759;SDS011;877;46.266;20.062;2023-03-14T07:58:42;6.97;;;4.50;;
1759;SDS011;877;46.266;20.062;2023-03-14T08:01:14;5.45;;;4.03;;
1759;SDS011;877;46.266;20.062;2023-03-14T08:03:53;8.23;;;4.15;;
1759;SDS011;877;46.266;20.062;2023-03-14T08:08:55;6.45;;;4.55;;
1759;SDS011;877;46.266;20.062;2023-03-14T08:13:53;9.85;;;6.07;;
1759;SDS011;877;46.266;20.062;2023-03-14T08:16:26;9.27;;;4.15;;
1759;SDS011;877;46.266;20.062;2023-03-14T08:21:23;9.03;;;4.83;;
1759;SDS011;877;46.266;20.062;2023-03-14T08:23:58;7.38;;;4.75;;
1759;SDS011;877;46.266;20.062;2023-03-14T08:26:26;9.80;;;5.07;;
1759;SDS011;877;46.266;20.062;2023-03-14T08:28:52;7.20;;;4.60;;
1759;SDS011;877;46.266;20.062;2023-03-14T08:33:59;8.47;;;4.43;;
1759;SDS011;877;46.266;20.062;2023-03-14T08:36:33;7.53;;;5.10;;
1759;SDS011;877;46.266;20.062;2023-03-14T08:39:05;10.52;;;5.30;;
1759;SDS011;877;46.266;20.062;2023-03-14T08:41:38;15.90;;;5.00;;
1759;SDS011;877;46.266;20.062;2023-03-14T08:46:39;7.32;;;4.97;;
1759;SDS011;877;46.266;20.062;2023-03-14T08:49:07;7.33;;;4.60;;
1759;SDS011;877;46.266;20.062;2023-03-14T08:54:26;8.90;;;5.37;;
1759;SDS011;877;46.266;20.062;2023-03-14T08:57:02;7.33;;;4.00;;
1759;SDS011;877;46.266;20.062;2023-03-14T08:59:35;5.97;;;3.63;;
1759;SDS011;877;46.266;20.062;2023-03-14T09:02:09;8.23;;;5.00;;
1759;SDS011;877;46.266;20.062;2023-03-14T09:04:35;10.97;;;4.37;;
1759;SDS011;877;46.266;20.062;2023-03-14T09:09:33;8.27;;;3.77;;
1759;SDS011;877;46.266;20.062;2023-03-14T09:12:01;9.73;;;5.30;;
1759;SDS011;877;46.266;20.062;2023-03-14T09:17:08;5.30;;;3.47;;
1759;SDS011;877;46.266;20.062;2023-03-14T09:19:40;10.30;;;4.77;;
1759;SDS011;877;46.266;20.062;2023-03-14T09:24:43;6.30;;;4.67;;
1759;SDS011;877;46.266;20.062;2023-03-14T09:27:23;8.13;;;4.63;;
1759;SDS011;877;46.266;20.062;2023-03-14T09:29:50;8.20;;;5.00;;
1759;SDS011;877;46.266;20.062;2023-03-14T09:32:23;8.73;;;4.47;;
1759;SDS011;877;46.266;20.062;2023-03-14T09:34:56;15.70;;;6.43;;
1759;SDS011;877;46.266;20.062;2023-03-14T09:37:23;6.30;;;4.30;;
1759;SDS011;877;46.266;20.062;2023-03-14T09:39:49;9.00;;;3.47;;
1759;SDS011;877;46.266;20.062;2023-03-14T09:42:25;11.60;;;6.10;;
1759;SDS011;877;46.266;20.062;2023-03-14T09:45:11;9.00;;;4.97;;
1759;SDS011;877;46.266;20.062;2023-03-14T09:47:39;7.93;;;4.83;;
1759;SDS011;877;46.266;20.062;2023-03-14T09:50:16;8.77;;;4.30;;
1759;SDS011;877;46.266;20.062;2023-03-14T09:52:55;8.30;;;4.37;;
1759;SDS011;877;46.266;20.062;2023-03-14T09:55:27;8.53;;;4.53;;
1759;SDS011;877;46.266;20.062;2023-03-14T09:58:02;7.00;;;4.30;;
1759;SDS011;877;46.266;20.062;2023-03-14T10:00:30;7.23;;;3.70;;
1759;SDS011;877;46.266;20.062;2023-03-14T10:03:14;10.63;;;5.00;;
1759;SDS011;877;46.266;20.062;2023-03-14T10:05:46;8.30;;;4.70;;
1759;SDS011;877;46.266;20.062;2023-03-14T10:08:26;12.93;;;4.90;;
1759;SDS011;877;46.266;20.062;2023-03-14T10:10:59;7.73;;;4.67;;
1759;SDS011;877;46.266;20.062;2023-03-14T10:13:34;9.27;;;4.43;;
1759;SDS011;877;46.266;20.062;2023-03-14T10:18:46;7.83;;;4.23;;
1759;SDS011;877;46.266;20.062;2023-03-14T10:21:30;5.70;;;4.40;;
1759;SDS011;877;46.266;20.062;2023-03-14T10:24:10;7.03;;;4.10;;
1759;SDS011;877;46.266;20.062;2023-03-14T10:26:43;11.70;;;5.00;;
1759;SDS011;877;46.266;20.062;2023-03-14T10:29:13;5.70;;;3.90;;
1759;SDS011;877;46.266;20.062;2023-03-14T10:34:34;6.77;;;4.00;;
1759;SDS011;877;46.266;20.062;2023-03-14T10:37:16;8.90;;;4.30;;
1759;SDS011;877;46.266;20.062;2023-03-14T10:39:50;9.30;;;3.87;;
1759;SDS011;877;46.266;20.062;2023-03-14T10:45:39;5.93;;;3.83;;
1759;SDS011;877;46.266;20.062;2023-03-14T10:53:17;7.40;;;3.90;;
1759;SDS011;877;46.266;20.062;2023-03-14T10:58:28;7.17;;;4.10;;
1759;SDS011;877;46.266;20.062;2023-03-14T11:01:09;6.70;;;4.37;;
1759;SDS011;877;46.266;20.062;2023-03-14T11:03:43;7.70;;;4.50;;
1759;SDS011;877;46.266;20.062;2023-03-14T11:14:48;7.73;;;5.43;;
1759;SDS011;877;46.266;20.062;2023-03-14T11:19:53;5.80;;;4.10;;
1759;SDS011;877;46.266;20.062;2023-03-14T11:22:31;11.30;;;5.73;;
1759;SDS011;877;46.266;20.062;2023-03-14T11:33:15;8.00;;;3.93;;
1759;SDS011;877;46.266;20.062;2023-03-14T11:41:43;9.77;;;4.70;;
1759;SDS011;877;46.266;20.062;2023-03-14T11:46:48;6.70;;;4.10;;
1759;SDS011;877;46.266;20.062;2023-03-14T11:52:20;9.53;;;4.97;;
1759;SDS011;877;46.266;20.062;2023-03-14T11:54:56;6.67;;;4.23;;
1759;SDS011;877;46.266;20.062;2023-03-14T11:57:24;8.10;;;4.63;;
1759;SDS011;877;46.266;20.062;2023-03-14T12:05:31;8.97;;;4.37;;
1759;SDS011;877;46.266;20.062;2023-03-14T12:13:29;5.33;;;3.60;;
1759;SDS011;877;46.266;20.062;2023-03-14T12:15:56;7.70;;;4.83;;
1759;SDS011;877;46.266;20.062;2023-03-14T12:18:29;7.93;;;4.27;;
1759;SDS011;877;46.266;20.062;2023-03-14T12:26:18;7.30;;;4.30;;
1759;SDS011;877;46.266;20.062;2023-03-14T12:28:49;6.40;;;4.50;;
1759;SDS011;877;46.266;20.062;2023-03-14T12:34:29;6.83;;;3.63;;
1759;SDS011;877;46.266;20.062;2023-03-14T12:47:51;6.20;;;4.00;;
1759;SDS011;877;46.266;20.062;2023-03-14T12:50:28;5.90;;;4.80;;
1759;SDS011;877;46.266;20.062;2023-03-14T12:58:28;8.30;;;3.87;;
1759;SDS011;877;46.266;20.062;2023-03-14T13:03:57;5.57;;;3.60;;
1759;SDS011;877;46.266;20.062;2023-03-14T13:12:00;5.87;;;4.23;;
1759;SDS011;877;46.266;20.062;2023-03-14T13:17:25;6.67;;;4.70;;
1759;SDS011;877;46.266;20.062;2023-03-14T13:19:53;7.07;;;4.07;;
1759;SDS011;877;46.266;20.062;2023-03-14T13:22:32;8.73;;;4.00;;
1759;SDS011;877;46.266;20.062;2023-03-14T13:25:12;7.13;;;4.37;;
1759;SDS011;877;46.266;20.062;2023-03-14T13:27:38;5.87;;;4.37;;
1759;SDS011;877;46.266;20.062;2023-03-14T13:30:25;7.27;;;4.73;;
1759;SDS011;877;46.266;20.062;2023-03-14T13:36:05;5.30;;;3.40;;
1759;SDS011;877;46.266;20.062;2023-03-14T13:38:38;5.70;;;3.40;;
1759;SDS011;877;46.266;20.062;2023-03-14T13:41:06;8.60;;;3.50;;
1759;SDS011;877;46.266;20.062;2023-03-14T13:43:41;6.00;;;3.50;;
1759;SDS011;877;46.266;20.062;2023-03-14T13:46:21;8.37;;;4.30;;
1759;SDS011;877;46.266;20.062;2023-03-14T13:49:01;4.60;;;2.90;;
1759;SDS011;877;46.266;20.062;2023-03-14T13:54:16;6.93;;;3.20;;
1759;SDS011;877;46.266;20.062;2023-03-14T13:56:45;8.90;;;4.20;;
1759;SDS011;877;46.266;20.062;2023-03-14T14:01:57;8.23;;;3.90;;
1759;SDS011;877;46.266;20.062;2023-03-14T14:04:26;7.40;;;3.97;;
1759;SDS011;877;46.266;20.062;2023-03-14T14:07:00;5.20;;;2.97;;
1759;SDS011;877;46.266;20.062;2023-03-14T14:12:18;8.70;;;3.20;;
1759;SDS011;877;46.266;20.062;2023-03-14T14:17:18;7.60;;;3.67;;
1759;SDS011;877;46.266;20.062;2023-03-14T14:19:46;10.43;;;3.27;;
1759;SDS011;877;46.266;20.062;2023-03-14T14:27:41;7.03;;;3.67;;
1759;SDS011;877;46.266;20.062;2023-03-14T14:32:43;8.30;;;4.03;;
1759;SDS011;877;46.266;20.062;2023-03-14T14:35:26;7.00;;;4.37;;
1759;SDS011;877;46.266;20.062;2023-03-14T14:37:56;6.23;;;3.80;;
1759;SDS011;877;46.266;20.062;2023-03-14T14:40:28;6.43;;;3.83;;
1759;SDS011;877;46.266;20.062;2023-03-14T14:43:14;10.63;;;5.60;;
1759;SDS011;877;46.266;20.062;2023-03-14T14:45:50;7.83;;;5.00;;
1759;SDS011;877;46.266;20.062;2023-03-14T14:48:24;9.70;;;4.07;;
1759;SDS011;877;46.266;20.062;2023-03-14T14:56:13;6.20;;;4.00;;
1759;SDS011;877;46.266;20.062;2023-03-14T14:58:40;6.60;;;3.10;;
1759;SDS011;877;46.266;20.062;2023-03-14T15:01:17;6.70;;;3.63;;
1759;SDS011;877;46.266;20.062;2023-03-14T15:03:49;5.63;;;3.67;;
1759;SDS011;877;46.266;20.062;2023-03-14T15:06:33;5.80;;;3.50;;
1759;SDS011;877;46.266;20.062;2023-03-14T15:08:59;6.40;;;3.90;;
1759;SDS011;877;46.266;20.062;2023-03-14T15:11:39;6.97;;;3.80;;
1759;SDS011;877;46.266;20.062;2023-03-14T15:14:09;6.23;;;3.90;;
1759;SDS011;877;46.266;20.062;2023-03-14T15:16:37;4.80;;;3.17;;
1759;SDS011;877;46.266;20.062;2023-03-14T15:19:19;7.73;;;4.00;;
1759;SDS011;877;46.266;20.062;2023-03-14T15:21:47;9.47;;;4.43;;
1759;SDS011;877;46.266;20.062;2023-03-14T15:24:20;8.17;;;5.10;;
1759;SDS011;877;46.266;20.062;2023-03-14T15:26:46;6.37;;;3.60;;
1759;SDS011;877;46.266;20.062;2023-03-14T15:29:12;7.50;;;3.80;;
1759;SDS011;877;46.266;20.062;2023-03-14T15:31:47;6.80;;;5.20;;
1759;SDS011;877;46.266;20.062;2023-03-14T15:34:18;10.47;;;4.53;;
1759;SDS011;877;46.266;20.062;2023-03-14T15:36:47;8.60;;;3.63;;
1759;SDS011;877;46.266;20.062;2023-03-14T15:39:14;8.43;;;4.63;;
1759;SDS011;877;46.266;20.062;2023-03-14T15:47:14;13.63;;;4.40;;
1759;SDS011;877;46.266;20.062;2023-03-14T15:49:41;6.77;;;4.40;;
1759;SDS011;877;46.266;20.062;2023-03-14T15:52:07;9.37;;;4.20;;
1759;SDS011;877;46.266;20.062;2023-03-14T15:54:34;10.03;;;4.30;;
1759;SDS011;877;46.266;20.062;2023-03-14T15:57:04;9.03;;;4.53;;
1759;SDS011;877;46.266;20.062;2023-03-14T15:59:32;7.23;;;3.80;;
1759;SDS011;877;46.266;20.062;2023-03-14T16:02:07;15.90;;;4.40;;
1759;SDS011;877;46.266;20.062;2023-03-14T16:04:41;7.37;;;4.47;;
1759;SDS011;877;46.266;20.062;2023-03-14T16:07:13;10.60;;;5.13;;
1759;SDS011;877;46.266;20.062;2023-03-14T16:09:41;8.20;;;5.33;;
1759;SDS011;877;46.266;20.062;2023-03-14T16:12:07;7.73;;;4.07;;
1759;SDS011;877;46.266;20.062;2023-03-14T16:14:35;8.10;;;4.80;;
1759;SDS011;877;46.266;20.062;2023-03-14T16:17:01;10.30;;;5.83;;
1759;SDS011;877;46.266;20.062;2023-03-14T16:22:02;8.50;;;5.80;;
1759;SDS011;877;46.266;20.062;2023-03-14T16:24:33;8.27;;;5.00;;
1759;SDS011;877;46.266;20.062;2023-03-14T16:27:01;7.97;;;5.00;;
1759;SDS011;877;46.266;20.062;2023-03-14T16:29:27;8.20;;;4.70;;
1759;SDS011;877;46.266;20.062;2023-03-14T16:31:59;12.73;;;4.23;;
1759;SDS011;877;46.266;20.062;2023-03-14T16:34:29;8.03;;;4.97;;
1759;SDS011;877;46.266;20.062;2023-03-14T16:36:59;10.03;;;4.47;;
1759;SDS011;877;46.266;20.062;2023-03-14T16:47:34;11.00;;;7.40;;
1759;SDS011;877;46.266;20.062;2023-03-14T16:50:05;8.90;;;6.00;;
1759;SDS011;877;46.266;20.062;2023-03-14T16:52:31;14.03;;;6.43;;
1759;SDS011;877;46.266;20.062;2023-03-14T16:55:05;10.23;;;6.10;;
1759;SDS011;877;46.266;20.062;2023-03-14T16:57:43;15.17;;;6.73;;
1759;SDS011;877;46.266;20.062;2023-03-14T17:00:10;10.00;;;5.17;;
1759;SDS011;877;46.266;20.062;2023-03-14T17:02:37;8.20;;;4.17;;
1759;SDS011;877;46.266;20.062;2023-03-14T17:07:35;7.77;;;4.20;;
1759;SDS011;877;46.266;20.062;2023-03-14T17:10:02;9.30;;;4.67;;
1759;SDS011;877;46.266;20.062;2023-03-14T17:12:30;7.60;;;5.40;;
1759;SDS011;877;46.266;20.062;2023-03-14T17:15:04;9.57;;;5.27;;
1759;SDS011;877;46.266;20.062;2023-03-14T17:17:32;10.60;;;6.10;;
1759;SDS011;877;46.266;20.062;2023-03-14T17:19:59;10.40;;;4.57;;
1759;SDS011;877;46.266;20.062;2023-03-14T17:25:15;11.40;;;6.03;;
1759;SDS011;877;46.266;20.062;2023-03-14T17:27:47;10.90;;;5.97;;
1759;SDS011;877;46.266;20.062;2023-03-14T17:30:14;9.13;;;5.67;;
1759;SDS011;877;46.266;20.062;2023-03-14T17:32:46;9.03;;;5.37;;
1759;SDS011;877;46.266;20.062;2023-03-14T17:35:22;8.50;;;6.00;;
1759;SDS011;877;46.266;20.062;2023-03-14T17:38:06;9.83;;;6.40;;
1759;SDS011;877;46.266;20.062;2023-03-14T17:43:04;8.10;;;5.17;;
1759;SDS011;877;46.266;20.062;2023-03-14T17:45:30;7.70;;;5.10;;
1759;SDS011;877;46.266;20.062;2023-03-14T17:47:56;8.00;;;4.90;;
1759;SDS011;877;46.266;20.062;2023-03-14T17:50:35;7.10;;;5.13;;
1759;SDS011;877;46.266;20.062;2023-03-14T17:55:36;7.70;;;5.60;;
1759;SDS011;877;46.266;20.062;2023-03-14T17:58:12;8.20;;;5.80;;
1759;SDS011;877;46.266;20.062;2023-03-14T18:00:40;9.87;;;6.10;;
1759;SDS011;877;46.266;20.062;2023-03-14T18:08:13;8.03;;;6.10;;
1759;SDS011;877;46.266;20.062;2023-03-14T18:10:46;12.30;;;5.40;;
1759;SDS011;877;46.266;20.062;2023-03-14T18:13:12;8.80;;;5.37;;
1759;SDS011;877;46.266;20.062;2023-03-14T18:15:39;6.67;;;5.03;;
1759;SDS011;877;46.266;20.062;2023-03-14T18:20:34;12.60;;;6.33;;
1759;SDS011;877;46.266;20.062;2023-03-14T18:23:00;8.20;;;4.87;;
1759;SDS011;877;46.266;20.062;2023-03-14T18:25:28;8.30;;;5.33;;
1759;SDS011;877;46.266;20.062;2023-03-14T18:30:26;8.43;;;5.10;;
1759;SDS011;877;46.266;20.062;2023-03-14T18:32:52;5.63;;;4.57;;
1759;SDS011;877;46.266;20.062;2023-03-14T18:35:33;7.37;;;4.90;;
1759;SDS011;877;46.266;20.062;2023-03-14T18:37:59;7.57;;;4.90;;
1759;SDS011;877;46.266;20.062;2023-03-14T18:40:33;7.50;;;4.43;;
1759;SDS011;877;46.266;20.062;2023-03-14T18:43:02;8.10;;;5.80;;
1759;SDS011;877;46.266;20.062;2023-03-14T18:45:34;9.93;;;5.90;;
1759;SDS011;877;46.266;20.062;2023-03-14T18:50:39;7.77;;;5.27;;
1759;SDS011;877;46.266;20.062;2023-03-14T19:01:43;9.20;;;5.43;;
1759;SDS011;877;46.266;20.062;2023-03-14T19:04:09;8.67;;;5.37;;
1759;SDS011;877;46.266;20.062;2023-03-14T19:06:37;10.37;;;5.97;;
1759;SDS011;877;46.266;20.062;2023-03-14T19:09:14;8.63;;;5.50;;
1759;SDS011;877;46.266;20.062;2023-03-14T19:11:41;10.77;;;5.60;;
1759;SDS011;877;46.266;20.062;2023-03-14T19:14:17;8.87;;;5.57;;
1759;SDS011;877;46.266;20.062;2023-03-14T19:16:45;14.30;;;6.13;;
1759;SDS011;877;46.266;20.062;2023-03-14T19:19:11;8.67;;;5.40;;
1759;SDS011;877;46.266;20.062;2023-03-14T19:21:49;10.37;;;5.77;;
1759;SDS011;877;46.266;20.062;2023-03-14T19:29:25;7.73;;;5.00;;
1759;SDS011;877;46.266;20.062;2023-03-14T19:31:53;9.90;;;4.87;;
1759;SDS011;877;46.266;20.062;2023-03-14T19:34:26;7.80;;;5.70;;
1759;SDS011;877;46.266;20.062;2023-03-14T19:39:55;9.03;;;5.73;;
1759;SDS011;877;46.266;20.062;2023-03-14T19:42:22;11.57;;;5.83;;
1759;SDS011;877;46.266;20.062;2023-03-14T19:44:54;7.00;;;5.23;;
1759;SDS011;877;46.266;20.062;2023-03-14T19:47:23;10.93;;;6.30;;
1759;SDS011;877;46.266;20.062;2023-03-14T19:55:10;8.83;;;5.90;;
1759;SDS011;877;46.266;20.062;2023-03-14T19:57:38;9.17;;;6.07;;
1759;SDS011;877;46.266;20.062;2023-03-14T20:02:44;8.90;;;6.70;;
1759;SDS011;877;46.266;20.062;2023-03-14T20:07:52;10.50;;;5.80;;
1759;SDS011;877;46.266;20.062;2023-03-14T20:12:47;10.87;;;6.37;;
1759;SDS011;877;46.266;20.062;2023-03-14T20:15:20;12.30;;;6.60;;
1759;SDS011;877;46.266;20.062;2023-03-14T20:17:58;9.30;;;6.87;;
1759;SDS011;877;46.266;20.062;2023-03-14T20:20:39;10.50;;;6.30;;
1759;SDS011;877;46.266;20.062;2023-03-14T20:23:06;9.70;;;6.57;;
1759;SDS011;877;46.266;20.062;2023-03-14T20:25:37;9.57;;;6.90;;
1759;SDS011;877;46.266;20.062;2023-03-14T20:28:12;12.70;;;8.00;;
1759;SDS011;877;46.266;20.062;2023-03-14T20:33:09;14.50;;;7.77;;
1759;SDS011;877;46.266;20.062;2023-03-14T20:35:39;11.50;;;7.50;;
1759;SDS011;877;46.266;20.062;2023-03-14T20:38:07;9.63;;;7.03;;
1759;SDS011;877;46.266;20.062;2023-03-14T20:40:44;10.80;;;6.73;;
1759;SDS011;877;46.266;20.062;2023-03-14T20:43:10;14.97;;;7.10;;
1759;SDS011;877;46.266;20.062;2023-03-14T20:45:37;11.97;;;6.50;;
1759;SDS011;877;46.266;20.062;2023-03-14T20:48:05;9.90;;;6.53;;
1759;SDS011;877;46.266;20.062;2023-03-14T20:50:31;10.97;;;7.20;;
1759;SDS011;877;46.266;20.062;2023-03-14T20:52:59;12.30;;;7.97;;
1759;SDS011;877;46.266;20.062;2023-03-14T20:55:26;10.27;;;7.13;;
1759;SDS011;877;46.266;20.062;2023-03-14T20:57:56;12.90;;;8.33;;
1759;SDS011;877;46.266;20.062;2023-03-14T21:00:30;15.00;;;8.77;;
1759;SDS011;877;46.266;20.062;2023-03-14T21:05:26;13.23;;;8.90;;
1759;SDS011;877;46.266;20.062;2023-03-14T21:07:58;14.50;;;9.50;;